sensor_id;sensor_type;location;lat;lon;timestamp;pressure;altitude;pressure_sealevel;temperature;humidity
6514;BME280;3290;47.716;9.070;2023-06-10T00:00:15;96409.47;;;22.01;52.21
6514;BME280;3290;47.716;9.070;2023-06-10T00:02:41;96407.91;;;21.87;52.81
6514;BME280;3290;47.716;9.070;2023-06-10T00:05:08;96408.88;;;21.64;53.59
6514;BME280;3290;47.716;9.070;2023-06-10T00:07:35;96409.09;;;21.81;53.41
6514;BME280;3290;47.716;9.070;2023-06-10T00:10:06;96415.41;;;21.85;53.41
6514;BME280;3290;47.716;9.070;2023-06-10T00:12:32;96404.34;;;21.78;53.69
6514;BME280;3290;47.716;9.070;2023-06-10T00:15:03;96411.38;;;21.74;53.75
6514;BME280;3290;47.716;9.070;2023-06-10T00:17:29;96412.44;;;21.73;53.84
6514;BME280;3290;47.716;9.070;2023-06-10T00:19:55;96414.22;;;21.91;53.65
6514;BME280;3290;47.716;9.070;2023-06-10T00:22:20;96407.91;;;22.00;53.01
6514;BME280;3290;47.716;9.070;2023-06-10T00:24:47;96416.88;;;21.91;53.33
6514;BME280;3290;47.716;9.070;2023-06-10T00:27:12;96411.53;;;21.91;53.65
6514;BME280;3290;47.716;9.070;2023-06-10T00:29:38;96414.84;;;21.88;53.99
6514;BME280;3290;47.716;9.070;2023-06-10T00:32:04;96413.25;;;21.87;54.08
6514;BME280;3290;47.716;9.070;2023-06-10T00:34:30;96409.28;;;21.84;54.10
6514;BME280;3290;47.716;9.070;2023-06-10T00:36:55;96394.38;;;21.70;54.88
6514;BME280;3290;47.716;9.070;2023-06-10T00:39:20;96408.69;;;22.01;53.89
6514;BME280;3290;47.716;9.070;2023-06-10T00:41:46;96399.47;;;22.07;53.53
6514;BME280;3290;47.716;9.070;2023-06-10T00:44:11;96400.28;;;22.07;53.49
6514;BME280;3290;47.716;9.070;2023-06-10T00:46:37;96403.84;;;21.76;55.25
6514;BME280;3290;47.716;9.070;2023-06-10T00:49:03;96405.16;;;21.65;55.83
6514;BME280;3290;47.716;9.070;2023-06-10T00:51:29;96410.38;;;21.57;56.12
6514;BME280;3290;47.716;9.070;2023-06-10T00:53:54;96404.06;;;21.34;56.48
6514;BME280;3290;47.716;9.070;2023-06-10T00:56:20;96404.16;;;21.29;56.57
6514;BME280;3290;47.716;9.070;2023-06-10T00:58:47;96403.88;;;21.31;56.86
6514;BME280;3290;47.716;9.070;2023-06-10T01:01:13;96402.63;;;21.10;57.29
6514;BME280;3290;47.716;9.070;2023-06-10T01:03:39;96408.22;;;21.27;56.88
6514;BME280;3290;47.716;9.070;2023-06-10T01:06:36;96400.72;;;21.29;56.92
6514;BME280;3290;47.716;9.070;2023-06-10T01:09:24;96398.22;;;20.88;58.93
6514;BME280;3290;47.716;9.070;2023-06-10T01:12:16;96396.53;;;20.78;59.68
6514;BME280;3290;47.716;9.070;2023-06-10T01:14:44;96399.19;;;20.78;60.08
6514;BME280;3290;47.716;9.070;2023-06-10T01:17:11;96404.09;;;20.71;60.79
6514;BME280;3290;47.716;9.070;2023-06-10T01:19:37;96409.41;;;20.71;60.64
6514;BME280;3290;47.716;9.070;2023-06-10T01:22:03;96399.69;;;20.80;60.04
6514;BME280;3290;47.716;9.070;2023-06-10T01:24:29;96404.00;;;20.58;60.75
6514;BME280;3290;47.716;9.070;2023-06-10T01:27:00;96399.75;;;20.57;61.33
6514;BME280;3290;47.716;9.070;2023-06-10T01:29:44;96400.56;;;20.39;61.90
6514;BME280;3290;47.716;9.070;2023-06-10T01:32:32;96407.66;;;20.44;62.23
6514;BME280;3290;47.716;9.070;2023-06-10T01:34:59;96408.16;;;20.27;62.96
6514;BME280;3290;47.716;9.070;2023-06-10T01:37:26;96401.06;;;20.23;63.50
6514;BME280;3290;47.716;9.070;2023-06-10T01:39:52;96402.50;;;20.34;63.41
6514;BME280;3290;47.716;9.070;2023-06-10T01:42:20;96405.84;;;20.03;64.54
6514;BME280;3290;47.716;9.070;2023-06-10T01:44:46;96413.66;;;19.94;64.99
6514;BME280;3290;47.716;9.070;2023-06-10T01:47:12;96413.91;;;19.69;67.00
6514;BME280;3290;47.716;9.070;2023-06-10T01:49:37;96418.00;;;19.39;68.40
6514;BME280;3290;47.716;9.070;2023-06-10T01:52:02;96417.25;;;19.80;67.28
6514;BME280;3290;47.716;9.070;2023-06-10T01:54:28;96420.25;;;19.73;67.45
6514;BME280;3290;47.716;9.070;2023-06-10T01:56:54;96421.63;;;19.48;68.73
6514;BME280;3290;47.716;9.070;2023-06-10T01:59:19;96425.50;;;19.83;66.83
6514;BME280;3290;47.716;9.070;2023-06-10T02:01:44;96427.72;;;19.71;67.13
6514;BME280;3290;47.716;9.070;2023-06-10T02:04:10;96430.84;;;19.55;68.35
6514;BME280;3290;47.716;9.070;2023-06-10T02:06:35;96432.75;;;19.50;68.73
6514;BME280;3290;47.716;9.070;2023-06-10T02:09:03;96430.91;;;19.22;70.08
6514;BME280;3290;47.716;9.070;2023-06-10T02:11:28;96435.59;;;19.30;70.17
6514;BME280;3290;47.716;9.070;2023-06-10T02:13:54;96432.88;;;19.07;71.40
6514;BME280;3290;47.716;9.070;2023-06-10T02:16:19;96431.09;;;19.02;71.48
6514;BME280;3290;47.716;9.070;2023-06-10T02:18:46;96440.50;;;19.18;71.22
6514;BME280;3290;47.716;9.070;2023-06-10T02:21:13;96439.13;;;18.87;72.00
6514;BME280;3290;47.716;9.070;2023-06-10T02:23:39;96432.72;;;18.93;72.04
6514;BME280;3290;47.716;9.070;2023-06-10T02:26:05;96446.41;;;18.72;73.31
6514;BME280;3290;47.716;9.070;2023-06-10T02:28:31;96441.19;;;18.95;72.21
6514;BME280;3290;47.716;9.070;2023-06-10T02:30:56;96446.94;;;19.07;71.72
6514;BME280;3290;47.716;9.070;2023-06-10T02:33:22;96450.88;;;18.77;73.44
6514;BME280;3290;47.716;9.070;2023-06-10T02:35:48;96447.88;;;18.50;74.94
6514;BME280;3290;47.716;9.070;2023-06-10T02:38:13;96451.53;;;18.64;74.61
6514;BME280;3290;47.716;9.070;2023-06-10T02:40:39;96450.81;;;18.48;75.71
6514;BME280;3290;47.716;9.070;2023-06-10T02:43:04;96452.72;;;18.38;76.11
6514;BME280;3290;47.716;9.070;2023-06-10T02:45:30;96458.78;;;18.44;76.38
6514;BME280;3290;47.716;9.070;2023-06-10T02:47:55;96455.44;;;18.71;74.94
6514;BME280;3290;47.716;9.070;2023-06-10T02:50:20;96459.47;;;18.64;75.51
6514;BME280;3290;47.716;9.070;2023-06-10T02:52:47;96456.97;;;18.77;74.82
6514;BME280;3290;47.716;9.070;2023-06-10T02:55:12;96459.44;;;18.69;75.01
6514;BME280;3290;47.716;9.070;2023-06-10T02:57:37;96455.38;;;18.81;74.81
6514;BME280;3290;47.716;9.070;2023-06-10T03:00:03;96453.97;;;18.93;74.19
6514;BME280;3290;47.716;9.070;2023-06-10T03:02:34;96456.94;;;18.82;74.92
6514;BME280;3290;47.716;9.070;2023-06-10T03:05:02;96457.63;;;18.59;75.74
6514;BME280;3290;47.716;9.070;2023-06-10T03:07:28;96464.09;;;18.48;76.63
6514;BME280;3290;47.716;9.070;2023-06-10T03:09:53;96459.16;;;18.27;77.81
6514;BME280;3290;47.716;9.070;2023-06-10T03:12:18;96468.03;;;18.51;77.05
6514;BME280;3290;47.716;9.070;2023-06-10T03:14:44;96478.97;;;18.45;76.96
6514;BME280;3290;47.716;9.070;2023-06-10T03:17:09;96475.66;;;18.14;78.95
6514;BME280;3290;47.716;9.070;2023-06-10T03:19:35;96475.69;;;18.09;79.09
6514;BME280;3290;47.716;9.070;2023-06-10T03:22:11;96478.84;;;18.16;79.19
6514;BME280;3290;47.716;9.070;2023-06-10T03:24:37;96484.09;;;18.26;78.56
6514;BME280;3290;47.716;9.070;2023-06-10T03:27:06;96483.50;;;18.39;78.21
6514;BME280;3290;47.716;9.070;2023-06-10T03:29:32;96482.41;;;18.45;77.62
6514;BME280;3290;47.716;9.070;2023-06-10T03:31:57;96487.72;;;18.45;77.73
6514;BME280;3290;47.716;9.070;2023-06-10T03:34:22;96484.41;;;18.68;76.95
6514;BME280;3290;47.716;9.070;2023-06-10T03:36:48;96480.22;;;18.57;77.05
6514;BME280;3290;47.716;9.070;2023-06-10T03:39:15;96484.56;;;18.38;78.29
6514;BME280;3290;47.716;9.070;2023-06-10T03:41:40;96481.16;;;18.28;78.89
6514;BME280;3290;47.716;9.070;2023-06-10T03:44:06;96488.13;;;18.04;79.64
6514;BME280;3290;47.716;9.070;2023-06-10T03:46:31;96489.72;;;18.00;80.06
6514;BME280;3290;47.716;9.070;2023-06-10T03:48:57;96493.72;;;18.03;80.46
6514;BME280;3290;47.716;9.070;2023-06-10T03:51:28;96487.63;;;17.97;80.68
6514;BME280;3290;47.716;9.070;2023-06-10T03:53:54;96495.63;;;17.82;81.79
6514;BME280;3290;47.716;9.070;2023-06-10T03:56:19;96494.25;;;18.00;80.78
6514;BME280;3290;47.716;9.070;2023-06-10T03:58:45;96500.16;;;17.77;82.25
6514;BME280;3290;47.716;9.070;2023-06-10T04:01:10;96495.03;;;18.05;81.29
6514;BME280;3290;47.716;9.070;2023-06-10T04:03:38;96506.50;;;17.81;81.99
6514;BME280;3290;47.716;9.070;2023-06-10T04:06:04;96496.38;;;17.98;82.19
6514;BME280;3290;47.716;9.070;2023-06-10T04:08:30;96494.75;;;18.02;81.70
6514;BME280;3290;47.716;9.070;2023-06-10T04:10:56;96506.22;;;17.87;83.27
6514;BME280;3290;47.716;9.070;2023-06-10T04:13:22;96500.63;;;17.94;82.65
6514;BME280;3290;47.716;9.070;2023-06-10T04:15:47;96507.53;;;17.85;83.80
6514;BME280;3290;47.716;9.070;2023-06-10T04:18:13;96504.88;;;17.90;83.50
6514;BME280;3290;47.716;9.070;2023-06-10T04:20:38;96502.72;;;18.06;82.98
6514;BME280;3290;47.716;9.070;2023-06-10T04:23:04;96500.91;;;17.97;83.65
6514;BME280;3290;47.716;9.070;2023-06-10T04:25:29;96499.56;;;17.90;84.02
6514;BME280;3290;47.716;9.070;2023-06-10T04:27:55;96507.25;;;17.91;84.36
6514;BME280;3290;47.716;9.070;2023-06-10T04:30:20;96509.06;;;18.05;83.92
6514;BME280;3290;47.716;9.070;2023-06-10T04:32:47;96514.38;;;18.05;83.91
6514;BME280;3290;47.716;9.070;2023-06-10T04:35:12;96514.38;;;18.15;83.45
6514;BME280;3290;47.716;9.070;2023-06-10T04:37:39;96514.88;;;18.27;83.17
6514;BME280;3290;47.716;9.070;2023-06-10T04:40:05;96512.09;;;18.47;82.20
6514;BME280;3290;47.716;9.070;2023-06-10T04:42:31;96513.13;;;18.56;81.73
6514;BME280;3290;47.716;9.070;2023-06-10T04:44:56;96524.22;;;18.68;82.03
6514;BME280;3290;47.716;9.070;2023-06-10T04:47:22;96524.41;;;18.81;80.62
6514;BME280;3290;47.716;9.070;2023-06-10T04:49:48;96525.69;;;18.88;80.57
6514;BME280;3290;47.716;9.070;2023-06-10T04:52:13;96526.72;;;18.92;80.70
6514;BME280;3290;47.716;9.070;2023-06-10T04:54:39;96518.84;;;19.21;79.49
6514;BME280;3290;47.716;9.070;2023-06-10T04:57:05;96525.56;;;19.41;78.47
6514;BME280;3290;47.716;9.070;2023-06-10T04:59:33;96519.84;;;19.58;77.02
6514;BME280;3290;47.716;9.070;2023-06-10T05:02:02;96515.28;;;19.91;76.20
6514;BME280;3290;47.716;9.070;2023-06-10T05:04:28;96523.16;;;20.01;74.48
6514;BME280;3290;47.716;9.070;2023-06-10T05:06:53;96532.03;;;19.92;76.19
6514;BME280;3290;47.716;9.070;2023-06-10T05:09:18;96527.09;;;20.04;75.86
6514;BME280;3290;47.716;9.070;2023-06-10T05:11:44;96521.13;;;20.16;74.64
6514;BME280;3290;47.716;9.070;2023-06-10T05:14:09;96532.25;;;20.42;72.73
6514;BME280;3290;47.716;9.070;2023-06-10T05:16:35;96530.78;;;20.54;72.12
6514;BME280;3290;47.716;9.070;2023-06-10T05:19:01;96526.63;;;20.66;71.96
6514;BME280;3290;47.716;9.070;2023-06-10T05:21:26;96528.19;;;20.72;72.05
6514;BME280;3290;47.716;9.070;2023-06-10T05:23:51;96538.22;;;20.75;71.16
6514;BME280;3290;47.716;9.070;2023-06-10T05:26:17;96540.84;;;21.17;68.50
6514;BME280;3290;47.716;9.070;2023-06-10T05:28:42;96543.00;;;21.15;68.74
6514;BME280;3290;47.716;9.070;2023-06-10T05:31:08;96546.66;;;21.19;69.36
6514;BME280;3290;47.716;9.070;2023-06-10T05:33:33;96538.47;;;21.15;70.17
6514;BME280;3290;47.716;9.070;2023-06-10T05:35:59;96544.44;;;20.89;70.42
6514;BME280;3290;47.716;9.070;2023-06-10T05:38:24;96547.47;;;21.01;69.74
6514;BME280;3290;47.716;9.070;2023-06-10T05:40:50;96552.22;;;21.04;68.90
6514;BME280;3290;47.716;9.070;2023-06-10T05:43:15;96550.69;;;21.34;68.27
6514;BME280;3290;47.716;9.070;2023-06-10T05:45:42;96555.06;;;21.62;66.60
6514;BME280;3290;47.716;9.070;2023-06-10T05:48:07;96559.75;;;21.70;66.62
6514;BME280;3290;47.716;9.070;2023-06-10T05:50:34;96559.06;;;21.78;66.49
6514;BME280;3290;47.716;9.070;2023-06-10T05:53:03;96556.22;;;21.88;66.24
6514;BME280;3290;47.716;9.070;2023-06-10T05:55:29;96556.53;;;21.86;65.87
6514;BME280;3290;47.716;9.070;2023-06-10T05:58:01;96558.44;;;21.68;66.59
6514;BME280;3290;47.716;9.070;2023-06-10T06:00:26;96557.22;;;21.92;65.77
6514;BME280;3290;47.716;9.070;2023-06-10T06:02:52;96567.06;;;21.78;65.01
6514;BME280;3290;47.716;9.070;2023-06-10T06:05:19;96563.13;;;22.20;63.88
6514;BME280;3290;47.716;9.070;2023-06-10T06:07:45;96568.09;;;22.40;64.00
6514;BME280;3290;47.716;9.070;2023-06-10T06:10:10;96569.16;;;22.39;65.21
6514;BME280;3290;47.716;9.070;2023-06-10T06:12:35;96561.75;;;22.23;64.33
6514;BME280;3290;47.716;9.070;2023-06-10T06:15:01;96563.97;;;21.71;65.91
6514;BME280;3290;47.716;9.070;2023-06-10T06:17:26;96561.09;;;21.99;65.41
6514;BME280;3290;47.716;9.070;2023-06-10T06:19:51;96559.47;;;21.85;66.22
6514;BME280;3290;47.716;9.070;2023-06-10T06:22:17;96559.88;;;22.23;65.46
6514;BME280;3290;47.716;9.070;2023-06-10T06:24:46;96567.69;;;22.33;65.19
6514;BME280;3290;47.716;9.070;2023-06-10T06:27:12;96565.44;;;21.95;66.24
6514;BME280;3290;47.716;9.070;2023-06-10T06:29:37;96558.91;;;21.88;65.97
6514;BME280;3290;47.716;9.070;2023-06-10T06:32:03;96558.25;;;22.09;65.68
6514;BME280;3290;47.716;9.070;2023-06-10T06:34:28;96561.66;;;22.28;64.67
6514;BME280;3290;47.716;9.070;2023-06-10T06:36:53;96551.84;;;22.63;64.30
6514;BME280;3290;47.716;9.070;2023-06-10T06:39:19;96559.78;;;22.55;63.12
6514;BME280;3290;47.716;9.070;2023-06-10T06:41:44;96559.38;;;22.48;63.29
6514;BME280;3290;47.716;9.070;2023-06-10T06:44:10;96558.19;;;22.81;63.70
6514;BME280;3290;47.716;9.070;2023-06-10T06:46:35;96556.56;;;22.80;63.12
6514;BME280;3290;47.716;9.070;2023-06-10T06:49:00;96556.94;;;23.13;60.97
6514;BME280;3290;47.716;9.070;2023-06-10T06:51:26;96561.22;;;23.01;62.82
6514;BME280;3290;47.716;9.070;2023-06-10T06:53:51;96555.94;;;23.09;61.38
6514;BME280;3290;47.716;9.070;2023-06-10T06:56:19;96560.03;;;23.64;59.64
6514;BME280;3290;47.716;9.070;2023-06-10T06:58:46;96563.88;;;23.71;59.31
6514;BME280;3290;47.716;9.070;2023-06-10T07:01:11;96566.34;;;23.89;58.91
6514;BME280;3290;47.716;9.070;2023-06-10T07:03:37;96556.69;;;23.36;59.65
6514;BME280;3290;47.716;9.070;2023-06-10T07:06:02;96560.28;;;23.54;59.28
6514;BME280;3290;47.716;9.070;2023-06-10T07:08:28;96558.13;;;23.42;59.09
6514;BME280;3290;47.716;9.070;2023-06-10T07:10:54;96554.84;;;23.45;59.79
6514;BME280;3290;47.716;9.070;2023-06-10T07:13:19;96555.00;;;23.27;59.56
6514;BME280;3290;47.716;9.070;2023-06-10T07:15:45;96554.50;;;23.82;58.45
6514;BME280;3290;47.716;9.070;2023-06-10T07:18:10;96554.91;;;23.32;59.10
6514;BME280;3290;47.716;9.070;2023-06-10T07:20:36;96562.72;;;23.85;58.11
6514;BME280;3290;47.716;9.070;2023-06-10T07:23:01;96558.91;;;24.08;58.95
6514;BME280;3290;47.716;9.070;2023-06-10T07:25:26;96554.25;;;24.22;58.23
6514;BME280;3290;47.716;9.070;2023-06-10T07:27:52;96560.66;;;23.82;59.03
6514;BME280;3290;47.716;9.070;2023-06-10T07:30:17;96555.88;;;24.01;59.20
6514;BME280;3290;47.716;9.070;2023-06-10T07:32:42;96560.41;;;23.14;61.47
6514;BME280;3290;47.716;9.070;2023-06-10T07:35:09;96554.78;;;23.59;61.95
6514;BME280;3290;47.716;9.070;2023-06-10T07:37:38;96544.34;;;23.92;60.02
6514;BME280;3290;47.716;9.070;2023-06-10T07:40:03;96557.38;;;23.64;60.54
6514;BME280;3290;47.716;9.070;2023-06-10T07:42:29;96557.06;;;24.17;58.76
6514;BME280;3290;47.716;9.070;2023-06-10T07:44:54;96557.31;;;24.37;57.04
6514;BME280;3290;47.716;9.070;2023-06-10T07:47:20;96556.44;;;24.20;58.55
6514;BME280;3290;47.716;9.070;2023-06-10T07:49:45;96550.56;;;24.40;58.25
6514;BME280;3290;47.716;9.070;2023-06-10T07:52:11;96552.78;;;24.46;57.68
6514;BME280;3290;47.716;9.070;2023-06-10T07:54:36;96552.84;;;23.94;59.13
6514;BME280;3290;47.716;9.070;2023-06-10T07:57:02;96560.22;;;24.19;58.89
6514;BME280;3290;47.716;9.070;2023-06-10T07:59:27;96566.53;;;24.23;57.77
6514;BME280;3290;47.716;9.070;2023-06-10T08:01:53;96565.50;;;24.79;56.62
6514;BME280;3290;47.716;9.070;2023-06-10T08:04:18;96566.41;;;25.22;54.65
6514;BME280;3290;47.716;9.070;2023-06-10T08:06:43;96557.41;;;25.26;54.12
6514;BME280;3290;47.716;9.070;2023-06-10T08:09:09;96561.97;;;25.09;56.35
6514;BME280;3290;47.716;9.070;2023-06-10T08:11:34;96562.16;;;25.21;53.61
6514;BME280;3290;47.716;9.070;2023-06-10T08:14:00;96557.75;;;25.41;52.69
6514;BME280;3290;47.716;9.070;2023-06-10T08:16:25;96562.47;;;25.28;53.20
6514;BME280;3290;47.716;9.070;2023-06-10T08:18:50;96568.63;;;25.70;53.01
6514;BME280;3290;47.716;9.070;2023-06-10T08:21:16;96559.63;;;25.49;54.17
6514;BME280;3290;47.716;9.070;2023-06-10T08:23:41;96563.41;;;25.82;53.83
6514;BME280;3290;47.716;9.070;2023-06-10T08:26:06;96555.66;;;25.89;52.36
6514;BME280;3290;47.716;9.070;2023-06-10T08:28:32;96553.72;;;26.06;52.06
6514;BME280;3290;47.716;9.070;2023-06-10T08:30:57;96563.88;;;25.08;54.04
6514;BME280;3290;47.716;9.070;2023-06-10T08:33:22;96569.06;;;24.96;53.70
6514;BME280;3290;47.716;9.070;2023-06-10T08:35:48;96555.56;;;25.60;54.59
6514;BME280;3290;47.716;9.070;2023-06-10T08:38:13;96559.78;;;26.40;51.87
6514;BME280;3290;47.716;9.070;2023-06-10T08:40:39;96555.53;;;26.48;52.23
6514;BME280;3290;47.716;9.070;2023-06-10T08:43:10;96557.63;;;26.71;51.01
6514;BME280;3290;47.716;9.070;2023-06-10T08:45:42;96557.94;;;26.32;51.36
6514;BME280;3290;47.716;9.070;2023-06-10T08:48:10;96560.56;;;25.87;50.92
6514;BME280;3290;47.716;9.070;2023-06-10T08:50:37;96557.16;;;26.69;49.64
6514;BME280;3290;47.716;9.070;2023-06-10T08:53:07;96562.25;;;26.62;49.79
6514;BME280;3290;47.716;9.070;2023-06-10T08:55:36;96546.97;;;26.83;50.58
6514;BME280;3290;47.716;9.070;2023-06-10T08:58:03;96558.56;;;26.21;51.28
6514;BME280;3290;47.716;9.070;2023-06-10T09:00:29;96560.34;;;26.25;51.69
6514;BME280;3290;47.716;9.070;2023-06-10T09:02:56;96556.44;;;26.52;49.79
6514;BME280;3290;47.716;9.070;2023-06-10T09:05:22;96556.03;;;26.33;50.41
6514;BME280;3290;47.716;9.070;2023-06-10T09:07:48;96551.22;;;26.55;50.80
6514;BME280;3290;47.716;9.070;2023-06-10T09:10:13;96541.94;;;26.73;50.02
6514;BME280;3290;47.716;9.070;2023-06-10T09:12:39;96550.00;;;26.73;49.92
6514;BME280;3290;47.716;9.070;2023-06-10T09:15:05;96544.94;;;27.00;49.33
6514;BME280;3290;47.716;9.070;2023-06-10T09:17:31;96547.69;;;27.40;48.05
6514;BME280;3290;47.716;9.070;2023-06-10T09:19:58;96550.44;;;27.32;48.68
6514;BME280;3290;47.716;9.070;2023-06-10T09:22:24;96545.31;;;26.99;48.04
6514;BME280;3290;47.716;9.070;2023-06-10T09:25:01;96548.44;;;27.00;49.19
6514;BME280;3290;47.716;9.070;2023-06-10T09:27:29;96550.38;;;26.63;49.47
6514;BME280;3290;47.716;9.070;2023-06-10T09:29:55;96539.00;;;27.15;48.71
6514;BME280;3290;47.716;9.070;2023-06-10T09:32:23;96542.53;;;28.32;46.49
6514;BME280;3290;47.716;9.070;2023-06-10T09:34:49;96547.69;;;27.61;47.37
6514;BME280;3290;47.716;9.070;2023-06-10T09:37:23;96543.75;;;27.90;47.08
6514;BME280;3290;47.716;9.070;2023-06-10T09:40:03;96548.19;;;26.94;48.71
6514;BME280;3290;47.716;9.070;2023-06-10T09:42:32;96542.81;;;27.34;48.18
6514;BME280;3290;47.716;9.070;2023-06-10T09:44:58;96544.03;;;27.77;47.29
6514;BME280;3290;47.716;9.070;2023-06-10T09:47:24;96547.88;;;28.08;48.09
6514;BME280;3290;47.716;9.070;2023-06-10T09:49:50;96545.06;;;27.32;47.02
6514;BME280;3290;47.716;9.070;2023-06-10T09:52:26;96549.63;;;27.11;48.12
6514;BME280;3290;47.716;9.070;2023-06-10T09:55:01;96544.38;;;27.35;48.37
6514;BME280;3290;47.716;9.070;2023-06-10T09:57:31;96540.06;;;27.95;46.81
6514;BME280;3290;47.716;9.070;2023-06-10T10:00:10;96536.38;;;27.06;47.71
6514;BME280;3290;47.716;9.070;2023-06-10T10:05:14;96536.25;;;27.96;47.70
6514;BME280;3290;47.716;9.070;2023-06-10T10:07:40;96534.66;;;28.27;45.28
6514;BME280;3290;47.716;9.070;2023-06-10T10:10:06;96538.78;;;27.80;46.84
6514;BME280;3290;47.716;9.070;2023-06-10T10:12:33;96534.31;;;28.17;46.54
6514;BME280;3290;47.716;9.070;2023-06-10T10:14:59;96529.94;;;28.36;46.30
6514;BME280;3290;47.716;9.070;2023-06-10T10:17:26;96535.91;;;28.18;47.01
6514;BME280;3290;47.716;9.070;2023-06-10T10:19:58;96526.16;;;28.37;47.32
6514;BME280;3290;47.716;9.070;2023-06-10T10:22:34;96527.50;;;29.02;45.10
6514;BME280;3290;47.716;9.070;2023-06-10T10:25:02;96523.00;;;29.18;44.99
6514;BME280;3290;47.716;9.070;2023-06-10T10:27:33;96527.34;;;29.22;46.03
6514;BME280;3290;47.716;9.070;2023-06-10T10:30:01;96522.91;;;29.42;45.95
6514;BME280;3290;47.716;9.070;2023-06-10T10:32:35;96517.13;;;29.55;45.85
6514;BME280;3290;47.716;9.070;2023-06-10T10:35:16;96519.75;;;30.21;43.99
6514;BME280;3290;47.716;9.070;2023-06-10T10:37:43;96512.00;;;29.77;44.16
6514;BME280;3290;47.716;9.070;2023-06-10T10:40:10;96516.50;;;29.73;44.30
6514;BME280;3290;47.716;9.070;2023-06-10T10:42:36;96523.31;;;30.10;43.78
6514;BME280;3290;47.716;9.070;2023-06-10T10:45:02;96517.81;;;30.06;42.07
6514;BME280;3290;47.716;9.070;2023-06-10T10:47:30;96520.97;;;30.08;42.93
6514;BME280;3290;47.716;9.070;2023-06-10T10:49:56;96504.25;;;30.33;41.51
6514;BME280;3290;47.716;9.070;2023-06-10T10:52:26;96516.03;;;30.56;41.63
6514;BME280;3290;47.716;9.070;2023-06-10T10:54:53;96505.28;;;30.14;40.27
6514;BME280;3290;47.716;9.070;2023-06-10T10:57:20;96505.47;;;29.78;41.99
6514;BME280;3290;47.716;9.070;2023-06-10T11:02:19;96492.72;;;29.51;40.34
6514;BME280;3290;47.716;9.070;2023-06-10T11:04:57;96492.94;;;28.01;43.36
6514;BME280;3290;47.716;9.070;2023-06-10T11:07:24;96493.84;;;29.11;42.20
6514;BME280;3290;47.716;9.070;2023-06-10T11:10:10;96493.31;;;30.76;39.46
6514;BME280;3290;47.716;9.070;2023-06-10T11:15:07;96478.59;;;31.26;39.64
6514;BME280;3290;47.716;9.070;2023-06-10T11:17:33;96484.22;;;31.18;40.98
6514;BME280;3290;47.716;9.070;2023-06-10T11:19:58;96480.34;;;31.00;39.38
6514;BME280;3290;47.716;9.070;2023-06-10T11:22:24;96479.31;;;31.05;40.04
6514;BME280;3290;47.716;9.070;2023-06-10T11:24:50;96482.06;;;30.13;41.62
6514;BME280;3290;47.716;9.070;2023-06-10T11:27:17;96486.78;;;30.16;39.78
6514;BME280;3290;47.716;9.070;2023-06-10T11:32:34;96475.34;;;30.07;40.78
6514;BME280;3290;47.716;9.070;2023-06-10T11:35:03;96469.78;;;30.30;39.21
6514;BME280;3290;47.716;9.070;2023-06-10T11:37:28;96472.47;;;31.10;39.60
6514;BME280;3290;47.716;9.070;2023-06-10T11:39:54;96468.19;;;31.09;38.87
6514;BME280;3290;47.716;9.070;2023-06-10T11:42:21;96471.00;;;31.50;36.81
6514;BME280;3290;47.716;9.070;2023-06-10T11:44:49;96479.09;;;32.07;34.78
6514;BME280;3290;47.716;9.070;2023-06-10T11:47:15;96468.19;;;31.09;34.55
6514;BME280;3290;47.716;9.070;2023-06-10T11:49:41;96468.88;;;30.88;35.85
6514;BME280;3290;47.716;9.070;2023-06-10T11:52:06;96474.78;;;30.28;37.71
6514;BME280;3290;47.716;9.070;2023-06-10T11:54:32;96479.59;;;30.08;38.51
6514;BME280;3290;47.716;9.070;2023-06-10T11:56:58;96481.25;;;29.54;40.14
6514;BME280;3290;47.716;9.070;2023-06-10T11:59:28;96466.44;;;30.22;36.60
6514;BME280;3290;47.716;9.070;2023-06-10T12:01:54;96470.63;;;30.65;40.54
6514;BME280;3290;47.716;9.070;2023-06-10T12:04:19;96461.81;;;31.36;35.22
6514;BME280;3290;47.716;9.070;2023-06-10T12:06:52;96465.34;;;31.78;33.62
6514;BME280;3290;47.716;9.070;2023-06-10T12:09:25;96459.16;;;30.37;35.26
6514;BME280;3290;47.716;9.070;2023-06-10T12:12:11;96452.59;;;31.59;33.59
6514;BME280;3290;47.716;9.070;2023-06-10T12:17:15;96446.41;;;31.40;34.26
6514;BME280;3290;47.716;9.070;2023-06-10T12:19:41;96444.06;;;31.98;32.74
6514;BME280;3290;47.716;9.070;2023-06-10T12:22:06;96439.59;;;32.09;32.75
6514;BME280;3290;47.716;9.070;2023-06-10T12:24:32;96442.84;;;32.18;33.08
6514;BME280;3290;47.716;9.070;2023-06-10T12:26:57;96438.59;;;32.17;33.22
6514;BME280;3290;47.716;9.070;2023-06-10T12:29:24;96450.13;;;31.51;33.23
6514;BME280;3290;47.716;9.070;2023-06-10T12:31:58;96444.28;;;30.62;34.45
6514;BME280;3290;47.716;9.070;2023-06-10T12:34:38;96434.88;;;31.43;34.40
6514;BME280;3290;47.716;9.070;2023-06-10T12:37:05;96439.59;;;31.68;33.31
6514;BME280;3290;47.716;9.070;2023-06-10T12:39:33;96435.88;;;32.17;33.25
6514;BME280;3290;47.716;9.070;2023-06-10T12:41:59;96430.72;;;32.34;33.56
6514;BME280;3290;47.716;9.070;2023-06-10T12:44:33;96431.03;;;31.85;33.33
6514;BME280;3290;47.716;9.070;2023-06-10T12:46:58;96425.72;;;32.14;33.48
6514;BME280;3290;47.716;9.070;2023-06-10T12:49:24;96421.88;;;31.33;34.55
6514;BME280;3290;47.716;9.070;2023-06-10T12:51:51;96430.50;;;31.01;34.98
6514;BME280;3290;47.716;9.070;2023-06-10T12:54:17;96428.06;;;30.96;33.66
6514;BME280;3290;47.716;9.070;2023-06-10T12:56:42;96415.88;;;31.84;33.44
6514;BME280;3290;47.716;9.070;2023-06-10T12:59:07;96422.38;;;31.98;32.77
6514;BME280;3290;47.716;9.070;2023-06-10T13:01:33;96423.31;;;32.31;32.43
6514;BME280;3290;47.716;9.070;2023-06-10T13:03:58;96420.72;;;31.53;33.67
6514;BME280;3290;47.716;9.070;2023-06-10T13:06:24;96417.88;;;31.27;33.46
6514;BME280;3290;47.716;9.070;2023-06-10T13:08:49;96429.59;;;31.72;33.43
6514;BME280;3290;47.716;9.070;2023-06-10T13:11:16;96412.13;;;31.89;33.58
6514;BME280;3290;47.716;9.070;2023-06-10T13:13:41;96415.16;;;31.65;33.83
6514;BME280;3290;47.716;9.070;2023-06-10T13:16:06;96419.41;;;30.57;35.07
6514;BME280;3290;47.716;9.070;2023-06-10T13:18:32;96409.81;;;29.67;35.50
6514;BME280;3290;47.716;9.070;2023-06-10T13:21:03;96407.41;;;30.08;36.11
6514;BME280;3290;47.716;9.070;2023-06-10T13:23:28;96407.25;;;31.00;35.37
6514;BME280;3290;47.716;9.070;2023-06-10T13:25:53;96400.19;;;31.33;34.71
6514;BME280;3290;47.716;9.070;2023-06-10T13:28:19;96395.59;;;31.75;33.93
6514;BME280;3290;47.716;9.070;2023-06-10T13:30:45;96398.44;;;32.04;32.55
6514;BME280;3290;47.716;9.070;2023-06-10T13:33:10;96386.31;;;31.53;33.75